CDT,Max TemperatureF,Mean TemperatureF,Min TemperatureF,Max Dew PointF,MeanDew PointF,Min DewpointF,Max Humidity, Mean Humidity, Min Humidity, Max Sea Level PressureIn, Mean Sea Level PressureIn, Min Sea Level PressureIn, Max VisibilityMiles, Mean VisibilityMiles, Min VisibilityMiles, Max Wind SpeedMPH, Mean Wind SpeedMPH, Max Gust SpeedMPH,PrecipitationIn, CloudCover, Events, WindDirDegrees
2011-10-1,85,69,52,41,37,29,68,41,13,30.25,30.16,30.11,10,10,10,13,4,17,0.00,0,,54
2011-10-2,83,71,58,40,37,32,46,31,16,30.29,30.20,30.14,10,10,10,16,6,20,0.00,0,,100
2011-10-3,84,68,52,46,39,34,64,40,16,30.27,30.20,30.15,10,10,10,10,4,18,0.00,0,,134
2011-10-4,86,69,52,49,40,34,66,41,16,30.27,30.19,30.12,10,10,10,12,5,16,0.00,0,,147
2011-10-5,88,72,55,53,42,31,72,43,13,30.19,30.11,30.02,10,10,10,16,7,21,0.00,0,,147
2011-10-6,89,74,59,62,53,45,70,51,31,30.10,30.03,29.96,10,10,10,20,10,26,0.00,0,,146
2011-10-7,91,80,68,64,61,56,78,56,34,30.11,30.05,30.00,10,10,10,18,12,24,0.00,1,,144
2011-10-8,91,80,68,64,61,55,79,56,32,30.12,30.03,29.94,10,10,10,22,13,29,T,3,,136
2011-10-9,85,76,67,70,63,57,100,70,40,30.04,30.00,29.93,10,10,8,26,9,33,0.14,4,Rain,142
2011-10-10,83,75,67,67,65,62,100,77,54,30.07,30.00,29.93,10,10,5,12,2,14,0.27,7,Rain,340
2011-10-11,86,75,64,64,61,56,93,65,37,29.96,29.89,29.80,10,10,10,12,3,14,0.00,1,,180
2011-10-12,78,71,64,66,63,59,93,79,64,29.90,29.83,29.78,10,9,1,25,7,35,0.52,4,Rain,224
2011-10-13,81,70,58,65,51,42,87,57,26,29.96,29.90,29.84,10,10,9,17,7,23,0.00,0,,320
2011-10-14,85,69,53,52,46,37,89,55,20,30.02,29.96,29.92,10,10,10,12,2,14,0.00,0,,188
2011-10-15,87,72,57,55,51,46,77,51,24,30.11,30.05,29.99,10,10,10,10,3,17,0.00,0,,189
2011-10-16,87,72,57,61,55,50,93,61,29,30.11,30.03,29.96,10,10,10,13,6,17,0.00,0,,188
2011-10-17,86,74,62,65,62,57,93,67,40,29.97,29.86,29.68,10,8,1,20,10,28,0.14,3,Rain-Thunderstorm,192
2011-10-18,69,61,52,66,47,35,86,60,34,30.02,29.90,29.70,10,10,4,29,14,36,0.19,4,Rain-Thunderstorm,330
2011-10-19,68,57,46,34,31,30,58,42,26,30.10,30.04,30.00,10,10,10,25,10,33,0.00,0,,321
2011-10-20,71,56,40,41,35,30,86,54,22,30.17,30.10,30.04,10,10,10,9,2,12,0.00,0,,153
2011-10-21,82,67,52,58,49,36,68,56,43,30.19,30.12,30.06,10,10,10,16,7,21,0.00,1,,152
2011-10-22,84,73,62,61,58,54,90,64,37,30.12,30.04,29.94,10,10,10,21,10,28,0.00,2,,177
2011-10-23,78,70,61,64,62,58,100,79,58,30.12,30.02,29.95,10,9,2,21,7,30,0.25,5,Rain-Thunderstorm,183
2011-10-24,82,69,55,62,56,52,100,68,36,30.22,30.16,30.12,10,5,0,10,4,13,0.00,3,Fog,102
2011-10-25,84,74,64,66,61,54,93,69,44,30.16,30.07,29.96,10,10,6,20,12,25,0.00,2,,177
2011-10-26,84,77,69,66,63,55,90,65,40,30.00,29.92,29.84,10,10,10,21,10,25,0.00,3,,187
2011-10-27,69,61,52,65,57,49,100,82,64,30.08,29.94,29.85,10,10,3,17,9,22,0.15,7,Rain,6
2011-10-28,61,53,44,52,45,37,100,71,42,30.29,30.17,30.07,10,10,10,17,9,22,0.00,6,,6
2011-10-29,66,52,37,39,35,30,92,60,28,30.32,30.23,30.14,10,10,10,9,2,13,0.00,0,,253
2011-10-30,69,55,40,41,37,33,76,52,27,30.24,30.17,30.13,10,10,10,15,3,21,0.00,0,,173
2011-10-31,75,59,43,48,43,39,89,61,33,30.25,30.19,30.13,10,10,10,10,4,13,0.00,0,,185